sensor_id;sensor_type;location;lat;lon;timestamp;temperature;humidity
58153;DHT22;43967;51.634;5.566;2022-09-09T00:01:32;24.20;61.60
58153;DHT22;43967;51.634;5.566;2022-09-09T00:06:46;24.20;61.60
58153;DHT22;43967;51.634;5.566;2022-09-09T00:12:01;24.20;61.50
58153;DHT22;43967;51.634;5.566;2022-09-09T00:17:34;24.10;61.50
58153;DHT22;43967;51.634;5.566;2022-09-09T00:22:38;24.10;61.40
58153;DHT22;43967;51.634;5.566;2022-09-09T00:27:45;24.20;61.50
58153;DHT22;43967;51.634;5.566;2022-09-09T00:32:47;24.10;61.30
58153;DHT22;43967;51.634;5.566;2022-09-09T00:37:51;24.10;61.30
58153;DHT22;43967;51.634;5.566;2022-09-09T00:48:13;24.10;61.20
58153;DHT22;43967;51.634;5.566;2022-09-09T00:53:30;24.10;61.20
58153;DHT22;43967;51.634;5.566;2022-09-09T00:58:33;24.10;61.10
58153;DHT22;43967;51.634;5.566;2022-09-09T01:03:37;24.10;61.10
58153;DHT22;43967;51.634;5.566;2022-09-09T01:30:23;24.10;61.00
58153;DHT22;43967;51.634;5.566;2022-09-09T01:40:30;24.10;60.90
58153;DHT22;43967;51.634;5.566;2022-09-09T01:45:33;24.10;60.90
58153;DHT22;43967;51.634;5.566;2022-09-09T01:50:34;24.10;60.90
58153;DHT22;43967;51.634;5.566;2022-09-09T01:55:40;24.10;60.80
58153;DHT22;43967;51.634;5.566;2022-09-09T02:01:28;24.10;60.80
58153;DHT22;43967;51.634;5.566;2022-09-09T02:06:36;24.10;60.80
58153;DHT22;43967;51.634;5.566;2022-09-09T02:12:09;24.10;60.80
58153;DHT22;43967;51.634;5.566;2022-09-09T02:17:24;24.00;60.70
58153;DHT22;43967;51.634;5.566;2022-09-09T02:22:37;24.00;60.70
58153;DHT22;43967;51.634;5.566;2022-09-09T02:27:43;24.10;60.70
58153;DHT22;43967;51.634;5.566;2022-09-09T02:32:48;24.00;60.60
58153;DHT22;43967;51.634;5.566;2022-09-09T02:37:54;24.00;60.60
58153;DHT22;43967;51.634;5.566;2022-09-09T02:42:58;24.00;60.70
58153;DHT22;43967;51.634;5.566;2022-09-09T02:48:17;24.00;60.60
58153;DHT22;43967;51.634;5.566;2022-09-09T02:53:32;24.00;60.60
58153;DHT22;43967;51.634;5.566;2022-09-09T02:58:37;24.00;60.50
58153;DHT22;43967;51.634;5.566;2022-09-09T03:03:41;24.00;60.50
58153;DHT22;43967;51.634;5.566;2022-09-09T03:08:46;24.00;60.60
58153;DHT22;43967;51.634;5.566;2022-09-09T03:13:47;24.00;60.50
58153;DHT22;43967;51.634;5.566;2022-09-09T03:18:48;24.00;60.50
58153;DHT22;43967;51.634;5.566;2022-09-09T03:23:50;24.00;60.50
58153;DHT22;43967;51.634;5.566;2022-09-09T03:28:51;24.00;60.40
58153;DHT22;43967;51.634;5.566;2022-09-09T03:33:53;24.00;60.40
58153;DHT22;43967;51.634;5.566;2022-09-09T03:38:56;24.00;60.50
58153;DHT22;43967;51.634;5.566;2022-09-09T03:43:59;24.00;60.50
58153;DHT22;43967;51.634;5.566;2022-09-09T03:49:03;24.00;60.40
58153;DHT22;43967;51.634;5.566;2022-09-09T03:54:07;24.00;60.40
58153;DHT22;43967;51.634;5.566;2022-09-09T03:59:09;24.00;60.40
58153;DHT22;43967;51.634;5.566;2022-09-09T04:04:10;24.00;60.40
58153;DHT22;43967;51.634;5.566;2022-09-09T04:09:11;24.00;60.40
58153;DHT22;43967;51.634;5.566;2022-09-09T04:14:12;24.00;60.40
58153;DHT22;43967;51.634;5.566;2022-09-09T04:19:13;24.00;60.50
58153;DHT22;43967;51.634;5.566;2022-09-09T04:24:16;23.90;60.40
58153;DHT22;43967;51.634;5.566;2022-09-09T04:29:17;24.00;60.40
58153;DHT22;43967;51.634;5.566;2022-09-09T04:34:19;24.00;60.40
58153;DHT22;43967;51.634;5.566;2022-09-09T04:39:20;23.90;60.40
58153;DHT22;43967;51.634;5.566;2022-09-09T04:44:21;23.90;60.40
58153;DHT22;43967;51.634;5.566;2022-09-09T04:49:22;23.90;60.40
58153;DHT22;43967;51.634;5.566;2022-09-09T04:54:23;23.90;60.40
58153;DHT22;43967;51.634;5.566;2022-09-09T04:59:25;23.90;60.40
58153;DHT22;43967;51.634;5.566;2022-09-09T05:04:30;23.90;60.40
58153;DHT22;43967;51.634;5.566;2022-09-09T05:09:33;22.80;60.60
58153;DHT22;43967;51.634;5.566;2022-09-09T05:14:35;22.30;61.80
58153;DHT22;43967;51.634;5.566;2022-09-09T05:19:36;22.00;62.70
58153;DHT22;43967;51.634;5.566;2022-09-09T05:24:38;21.80;63.10
58153;DHT22;43967;51.634;5.566;2022-09-09T05:29:39;21.70;63.60
58153;DHT22;43967;51.634;5.566;2022-09-09T05:34:42;21.70;63.90
58153;DHT22;43967;51.634;5.566;2022-09-09T05:39:44;21.60;64.20
58153;DHT22;43967;51.634;5.566;2022-09-09T05:44:46;21.40;64.40
58153;DHT22;43967;51.634;5.566;2022-09-09T05:49:47;21.40;64.60
58153;DHT22;43967;51.634;5.566;2022-09-09T05:54:48;21.40;64.90
58153;DHT22;43967;51.634;5.566;2022-09-09T05:59:49;21.30;65.10
58153;DHT22;43967;51.634;5.566;2022-09-09T06:04:50;21.30;65.00
58153;DHT22;43967;51.634;5.566;2022-09-09T06:09:52;21.50;65.00
58153;DHT22;43967;51.634;5.566;2022-09-09T06:14:53;21.30;65.30
58153;DHT22;43967;51.634;5.566;2022-09-09T06:19:54;21.20;65.90
58153;DHT22;43967;51.634;5.566;2022-09-09T06:24:55;21.00;66.50
58153;DHT22;43967;51.634;5.566;2022-09-09T06:29:57;21.00;66.70
58153;DHT22;43967;51.634;5.566;2022-09-09T06:34:58;21.10;66.50
58153;DHT22;43967;51.634;5.566;2022-09-09T06:39:59;21.30;66.40
58153;DHT22;43967;51.634;5.566;2022-09-09T06:45:00;21.20;66.50
58153;DHT22;43967;51.634;5.566;2022-09-09T06:50:10;21.30;66.80
58153;DHT22;43967;51.634;5.566;2022-09-09T06:55:12;21.50;66.60
58153;DHT22;43967;51.634;5.566;2022-09-09T07:00:14;21.60;66.40
58153;DHT22;43967;51.634;5.566;2022-09-09T07:05:18;21.60;66.20
58153;DHT22;43967;51.634;5.566;2022-09-09T07:10:21;21.70;66.20
58153;DHT22;43967;51.634;5.566;2022-09-09T07:15:22;21.70;65.60
58153;DHT22;43967;51.634;5.566;2022-09-09T07:20:23;21.70;65.80
58153;DHT22;43967;51.634;5.566;2022-09-09T07:25:25;21.70;65.90
58153;DHT22;43967;51.634;5.566;2022-09-09T07:30:26;21.80;65.60
58153;DHT22;43967;51.634;5.566;2022-09-09T08:51:33;22.20;63.30
58153;DHT22;43967;51.634;5.566;2022-09-09T08:56:35;22.20;63.20
58153;DHT22;43967;51.634;5.566;2022-09-09T09:07:28;22.10;63.10
58153;DHT22;43967;51.634;5.566;2022-09-09T09:12:40;22.30;63.30
58153;DHT22;43967;51.634;5.566;2022-09-09T09:17:42;22.60;62.80
58153;DHT22;43967;51.634;5.566;2022-09-09T09:22:49;22.70;62.30
58153;DHT22;43967;51.634;5.566;2022-09-09T09:28:10;22.80;62.00
58153;DHT22;43967;51.634;5.566;2022-09-09T09:33:35;22.90;61.90
58153;DHT22;43967;51.634;5.566;2022-09-09T09:38:39;23.00;62.60
58153;DHT22;43967;51.634;5.566;2022-09-09T09:43:41;23.10;61.90
58153;DHT22;43967;51.634;5.566;2022-09-09T09:59:32;23.10;62.50
58153;DHT22;43967;51.634;5.566;2022-09-09T10:04:34;23.20;62.10
58153;DHT22;43967;51.634;5.566;2022-09-09T10:09:35;23.20;61.60
58153;DHT22;43967;51.634;5.566;2022-09-09T10:31:24;23.30;61.40
58153;DHT22;43967;51.634;5.566;2022-09-09T10:36:28;23.30;61.50
58153;DHT22;43967;51.634;5.566;2022-09-09T10:52:18;23.30;61.40
58153;DHT22;43967;51.634;5.566;2022-09-09T10:57:46;23.30;61.40
58153;DHT22;43967;51.634;5.566;2022-09-09T11:13:28;23.40;61.70
58153;DHT22;43967;51.634;5.566;2022-09-09T11:29:35;23.40;61.40
58153;DHT22;43967;51.634;5.566;2022-09-09T11:35:00;23.40;61.40
58153;DHT22;43967;51.634;5.566;2022-09-09T11:40:24;23.40;61.50
58153;DHT22;43967;51.634;5.566;2022-09-09T11:45:26;23.50;61.40
58153;DHT22;43967;51.634;5.566;2022-09-09T11:50:33;23.50;61.40
58153;DHT22;43967;51.634;5.566;2022-09-09T11:55:37;23.50;61.50
58153;DHT22;43967;51.634;5.566;2022-09-09T12:00:57;23.40;61.60
58153;DHT22;43967;51.634;5.566;2022-09-09T12:11:29;23.20;62.60
58153;DHT22;43967;51.634;5.566;2022-09-09T12:16:37;23.10;63.00
58153;DHT22;43967;51.634;5.566;2022-09-09T12:22:01;23.10;63.40
58153;DHT22;43967;51.634;5.566;2022-09-09T12:32:11;23.10;63.40
58153;DHT22;43967;51.634;5.566;2022-09-09T12:42:39;23.00;63.60
58153;DHT22;43967;51.634;5.566;2022-09-09T12:48:08;22.80;64.30
58153;DHT22;43967;51.634;5.566;2022-09-09T13:09:02;23.00;63.50
58153;DHT22;43967;51.634;5.566;2022-09-09T13:14:03;23.10;63.30
58153;DHT22;43967;51.634;5.566;2022-09-09T13:19:15;23.00;63.70
58153;DHT22;43967;51.634;5.566;2022-09-09T13:24:30;23.00;64.10
58153;DHT22;43967;51.634;5.566;2022-09-09T13:29:32;23.00;64.70
58153;DHT22;43967;51.634;5.566;2022-09-09T13:34:34;23.10;64.60
58153;DHT22;43967;51.634;5.566;2022-09-09T13:44:55;23.30;63.90
58153;DHT22;43967;51.634;5.566;2022-09-09T13:49:56;23.40;63.70
58153;DHT22;43967;51.634;5.566;2022-09-09T13:54:57;23.50;63.50
58153;DHT22;43967;51.634;5.566;2022-09-09T13:59:59;23.60;63.30
58153;DHT22;43967;51.634;5.566;2022-09-09T14:05:00;23.60;63.10
58153;DHT22;43967;51.634;5.566;2022-09-09T14:10:01;23.70;62.90
58153;DHT22;43967;51.634;5.566;2022-09-09T14:15:06;23.70;62.80
58153;DHT22;43967;51.634;5.566;2022-09-09T14:20:08;23.70;62.70
58153;DHT22;43967;51.634;5.566;2022-09-09T14:25:09;23.70;62.60
58153;DHT22;43967;51.634;5.566;2022-09-09T14:30:10;23.70;62.60
58153;DHT22;43967;51.634;5.566;2022-09-09T14:35:12;23.70;62.50
58153;DHT22;43967;51.634;5.566;2022-09-09T14:40:13;23.70;62.40
58153;DHT22;43967;51.634;5.566;2022-09-09T14:45:14;23.80;62.40
58153;DHT22;43967;51.634;5.566;2022-09-09T14:50:15;23.80;62.40
58153;DHT22;43967;51.634;5.566;2022-09-09T15:49:22;23.20;64.90
58153;DHT22;43967;51.634;5.566;2022-09-09T15:54:25;23.30;64.60
58153;DHT22;43967;51.634;5.566;2022-09-09T15:59:29;23.40;64.50
58153;DHT22;43967;51.634;5.566;2022-09-09T16:04:30;23.40;64.50
58153;DHT22;43967;51.634;5.566;2022-09-09T16:09:32;23.40;64.60
58153;DHT22;43967;51.634;5.566;2022-09-09T16:19:51;23.50;64.50
58153;DHT22;43967;51.634;5.566;2022-09-09T16:24:52;23.50;64.50
58153;DHT22;43967;51.634;5.566;2022-09-09T16:29:54;23.60;64.70
58153;DHT22;43967;51.634;5.566;2022-09-09T16:34:55;23.50;64.60
58153;DHT22;43967;51.634;5.566;2022-09-09T16:39:57;23.60;64.60
58153;DHT22;43967;51.634;5.566;2022-09-09T17:06:15;23.60;65.00
58153;DHT22;43967;51.634;5.566;2022-09-09T17:22:09;23.70;65.50
58153;DHT22;43967;51.634;5.566;2022-09-09T17:27:16;23.70;65.30
58153;DHT22;43967;51.634;5.566;2022-09-09T17:37:37;23.60;65.30
58153;DHT22;43967;51.634;5.566;2022-09-09T18:09:09;23.70;66.60
